createdAt,value
2022-09-28T00:01:15.011Z,9.29
2022-09-28T00:03:41.864Z,9.37
2022-09-28T00:06:11.697Z,9.35
2022-09-28T00:08:38.628Z,9.30
2022-09-28T00:11:08.047Z,9.39
2022-09-28T00:13:37.366Z,9.38
2022-09-28T00:16:09.696Z,9.34
2022-09-28T00:18:36.466Z,9.33
2022-09-28T00:21:05.798Z,9.28
2022-09-28T00:23:33.287Z,9.30
2022-09-28T00:26:06.219Z,9.28
2022-09-28T00:28:33.104Z,9.29
2022-09-28T00:30:59.687Z,9.31
2022-09-28T00:33:26.669Z,9.29
2022-09-28T00:35:59.642Z,9.31
2022-09-28T00:38:29.444Z,9.29
2022-09-28T00:40:56.053Z,9.36
2022-09-28T00:43:28.168Z,9.26
2022-09-28T00:46:13.711Z,9.33
2022-09-28T00:48:45.754Z,9.35
2022-09-28T00:51:15.229Z,9.36
2022-09-28T00:53:49.198Z,9.36
2022-09-28T00:56:21.307Z,9.35
2022-09-28T00:58:54.592Z,9.31
2022-09-28T01:01:21.692Z,9.33
2022-09-28T01:03:48.835Z,9.25
2022-09-28T01:06:20.512Z,9.26
2022-09-28T01:08:51.240Z,9.22
2022-09-28T01:11:19.635Z,9.19
2022-09-28T01:13:48.552Z,9.14
2022-09-28T01:16:24.001Z,9.09
2022-09-28T01:19:18.999Z,9.06
2022-09-28T01:22:19.025Z,9.03
2022-09-28T01:24:47.191Z,9.01
2022-09-28T01:27:38.821Z,9.00
2022-09-28T01:30:11.790Z,8.97
2022-09-28T01:32:50.512Z,8.99
2022-09-28T01:35:23.812Z,8.98
2022-09-28T01:38:00.484Z,8.93
2022-09-28T01:40:32.513Z,8.93
2022-09-28T01:43:05.723Z,8.95
2022-09-28T01:45:51.604Z,8.94
2022-09-28T01:48:24.665Z,8.88
2022-09-28T01:50:58.570Z,8.96
2022-09-28T01:53:40.918Z,8.97
2022-09-28T01:56:21.429Z,8.95
2022-09-28T01:58:58.367Z,8.98
2022-09-28T02:01:36.342Z,9.05
2022-09-28T02:04:16.042Z,9.06
2022-09-28T02:06:54.188Z,9.08
2022-09-28T02:09:33.882Z,9.09
2022-09-28T02:12:10.091Z,9.12
2022-09-28T02:14:40.094Z,9.10
2022-09-28T02:17:09.800Z,9.11
2022-09-28T02:19:40.045Z,9.14
2022-09-28T02:22:43.112Z,9.17
2022-09-28T02:25:13.893Z,9.15
2022-09-28T02:27:59.920Z,9.05
2022-09-28T02:30:29.782Z,9.06
2022-09-28T02:33:03.489Z,8.98
2022-09-28T02:35:35.415Z,9.03
2022-09-28T02:38:02.612Z,9.03
2022-09-28T02:40:34.703Z,8.99
2022-09-28T02:43:36.744Z,9.02
2022-09-28T02:46:29.798Z,9.01
2022-09-28T02:49:22.107Z,9.01
2022-09-28T02:52:13.701Z,9.02
2022-09-28T02:54:45.978Z,9.01
2022-09-28T02:57:15.755Z,9.00
2022-09-28T02:59:48.488Z,8.99
2022-09-28T03:02:30.177Z,8.99
2022-09-28T03:05:06.423Z,9.01
2022-09-28T03:07:39.912Z,9.02
2022-09-28T03:10:28.062Z,9.02
2022-09-28T03:12:55.831Z,8.99
2022-09-28T03:15:28.618Z,8.93
2022-09-28T03:17:55.914Z,8.87
2022-09-28T03:20:22.500Z,8.88
2022-09-28T03:23:12.459Z,8.81
2022-09-28T03:25:38.019Z,8.86
2022-09-28T03:28:04.724Z,8.87
2022-09-28T03:30:31.503Z,8.87
2022-09-28T03:33:00.140Z,8.89
2022-09-28T03:35:26.650Z,8.92
2022-09-28T03:37:59.155Z,8.91
2022-09-28T03:40:25.767Z,8.88
2022-09-28T03:42:52.355Z,8.87
2022-09-28T03:45:18.845Z,8.94
2022-09-28T03:47:50.219Z,8.94
2022-09-28T03:50:16.782Z,8.87
2022-09-28T03:52:43.609Z,8.85
2022-09-28T03:55:10.973Z,8.89
2022-09-28T03:57:39.810Z,8.89
2022-09-28T04:00:06.689Z,8.83
2022-09-28T04:02:34.889Z,8.75
2022-09-28T04:05:03.945Z,8.77
2022-09-28T04:07:31.329Z,8.76
2022-09-28T04:09:58.235Z,8.76
2022-09-28T04:12:24.771Z,8.76
2022-09-28T04:14:51.273Z,8.76
2022-09-28T04:17:20.057Z,8.74
2022-09-28T04:19:47.426Z,8.73
2022-09-28T04:22:16.383Z,8.70
2022-09-28T04:24:43.643Z,8.69
2022-09-28T04:27:28.884Z,8.57
2022-09-28T04:29:55.387Z,8.60
2022-09-28T04:32:24.605Z,8.50
2022-09-28T04:34:51.869Z,8.47
2022-09-28T04:37:18.403Z,8.45
2022-09-28T04:39:48.460Z,8.38
2022-09-28T04:42:15.940Z,8.37
2022-09-28T04:44:42.474Z,8.38
2022-09-28T04:47:09.027Z,8.34
2022-09-28T04:49:37.093Z,8.30
2022-09-28T04:52:04.801Z,8.23
2022-09-28T04:54:31.400Z,8.27
2022-09-28T04:56:58.289Z,8.21
2022-09-28T04:59:25.120Z,8.23
2022-09-28T05:01:53.663Z,8.30
2022-09-28T05:04:24.974Z,8.32
2022-09-28T05:06:52.425Z,8.37
2022-09-28T05:09:19.248Z,8.41
2022-09-28T05:11:45.727Z,8.41
2022-09-28T05:14:12.714Z,8.39
2022-09-28T05:16:39.268Z,8.35
2022-09-28T05:19:08.273Z,8.32
2022-09-28T05:21:35.044Z,8.23
2022-09-28T05:24:07.279Z,8.27
2022-09-28T05:26:36.379Z,8.23
2022-09-28T05:29:05.705Z,8.21
2022-09-28T05:31:32.442Z,8.23
2022-09-28T05:34:01.298Z,8.20
2022-09-28T05:36:32.539Z,8.18
2022-09-28T05:39:03.714Z,8.18
2022-09-28T05:41:30.272Z,8.20
2022-09-28T05:43:58.153Z,8.20
2022-09-28T05:46:24.790Z,8.19
2022-09-28T05:48:54.476Z,8.18
2022-09-28T05:51:21.318Z,8.18
2022-09-28T05:53:47.861Z,8.18
2022-09-28T05:56:14.356Z,8.20
2022-09-28T05:58:40.902Z,8.20
2022-09-28T06:01:07.518Z,8.16
2022-09-28T06:03:36.284Z,8.19
2022-09-28T06:06:02.856Z,8.17
2022-09-28T06:08:34.485Z,8.11
2022-09-28T06:11:02.001Z,8.18
2022-09-28T06:13:29.259Z,8.18
2022-09-28T06:15:58.092Z,8.18
2022-09-28T06:18:24.629Z,8.22
2022-09-28T06:20:51.253Z,8.18
2022-09-28T06:23:17.855Z,8.24
2022-09-28T06:25:46.698Z,8.23
2022-09-28T06:28:17.038Z,8.34
2022-09-28T06:30:44.139Z,8.36
2022-09-28T06:33:14.412Z,8.47
2022-09-28T06:35:41.043Z,8.51
2022-09-28T06:38:10.711Z,8.63
2022-09-28T06:40:37.807Z,8.75
2022-09-28T06:43:10.310Z,8.77
2022-09-28T06:45:38.593Z,8.70
2022-09-28T06:48:09.390Z,8.70
2022-09-28T06:50:40.235Z,8.69
2022-09-28T06:53:09.555Z,8.75
2022-09-28T06:55:39.980Z,8.76
2022-09-28T06:58:09.868Z,8.78
2022-09-28T07:00:38.145Z,8.86
2022-09-28T07:03:14.555Z,8.93
2022-09-28T07:05:46.296Z,8.92
2022-09-28T07:08:13.353Z,9.00
2022-09-28T07:10:45.454Z,9.04
2022-09-28T07:13:30.098Z,9.07
2022-09-28T07:16:03.226Z,9.11
2022-09-28T07:18:32.211Z,9.17
2022-09-28T07:20:59.450Z,9.14
2022-09-28T07:23:34.898Z,9.22
2022-09-28T07:26:09.363Z,9.29
2022-09-28T07:28:42.997Z,9.32
2022-09-28T07:31:11.980Z,9.41
2022-09-28T07:33:40.819Z,9.47
2022-09-28T07:36:07.497Z,9.53
2022-09-28T07:38:34.174Z,9.58
2022-09-28T07:41:12.824Z,9.62
2022-09-28T07:43:40.718Z,9.66
2022-09-28T07:46:12.254Z,9.75
2022-09-28T07:48:41.068Z,9.79
2022-09-28T07:51:08.125Z,9.84
2022-09-28T07:53:35.508Z,9.92
2022-09-28T07:56:06.266Z,9.93
2022-09-28T07:58:34.442Z,10.01
2022-09-28T08:01:08.587Z,10.07
2022-09-28T08:03:35.469Z,10.16
2022-09-28T08:06:05.166Z,10.22
2022-09-28T08:08:33.933Z,10.22
2022-09-28T08:11:00.468Z,10.36
2022-09-28T08:13:27.414Z,12.03
2022-09-28T08:15:54.783Z,14.99
2022-09-28T08:18:23.915Z,16.89
2022-09-28T08:21:14.255Z,17.89
2022-09-28T08:23:40.786Z,18.79
2022-09-28T08:26:13.408Z,18.92
2022-09-28T08:28:43.215Z,19.20
2022-09-28T08:31:10.031Z,18.69
2022-09-28T08:33:39.022Z,19.58
2022-09-28T08:36:06.150Z,19.91
2022-09-28T08:38:32.824Z,19.03
2022-09-28T08:41:09.859Z,18.68
2022-09-28T08:44:03.904Z,19.19
2022-09-28T08:46:42.315Z,19.81
2022-09-28T08:49:30.874Z,19.35
2022-09-28T08:52:05.872Z,19.06
2022-09-28T08:54:39.106Z,19.04
2022-09-28T08:57:14.071Z,18.49
2022-09-28T08:59:57.142Z,18.39
2022-09-28T09:02:29.472Z,18.78
2022-09-28T09:04:57.987Z,18.61
2022-09-28T09:07:57.340Z,18.53
2022-09-28T09:10:47.936Z,18.39
2022-09-28T09:13:30.732Z,18.41
2022-09-28T09:15:57.186Z,17.98
2022-09-28T09:18:44.993Z,17.61
2022-09-28T09:21:25.680Z,17.60
2022-09-28T09:24:03.941Z,17.21
2022-09-28T09:26:40.550Z,17.02
2022-09-28T09:29:36.571Z,17.26
2022-09-28T09:32:21.465Z,17.32
2022-09-28T09:35:24.449Z,16.76
2022-09-28T09:38:02.687Z,16.38
2022-09-28T09:40:41.933Z,16.03
2022-09-28T09:43:31.665Z,16.34
2022-09-28T09:46:15.716Z,16.45
2022-09-28T09:49:00.474Z,16.27
2022-09-28T09:51:45.339Z,16.12
2022-09-28T09:54:26.781Z,15.87
2022-09-28T09:57:05.671Z,15.68
2022-09-28T09:59:39.923Z,15.50
2022-09-28T10:02:21.749Z,15.58
2022-09-28T10:04:51.724Z,15.75
2022-09-28T10:07:27.789Z,16.15
2022-09-28T10:10:01.427Z,16.49
2022-09-28T10:12:31.569Z,16.96
2022-09-28T10:15:02.036Z,17.28
2022-09-28T10:17:28.575Z,17.42
2022-09-28T10:19:56.948Z,17.37
2022-09-28T10:22:26.213Z,17.13
2022-09-28T10:24:57.600Z,17.20
2022-09-28T10:27:31.890Z,17.29
2022-09-28T10:30:09.342Z,17.16
2022-09-28T10:32:44.624Z,16.97
2022-09-28T10:35:16.988Z,16.85
2022-09-28T10:37:55.798Z,16.80
2022-09-28T10:40:30.222Z,16.66
2022-09-28T10:43:06.492Z,16.88
2022-09-28T10:45:37.121Z,16.82
2022-09-28T10:48:19.793Z,16.94
2022-09-28T10:51:09.698Z,17.24
2022-09-28T10:53:37.266Z,17.44
2022-09-28T10:56:06.079Z,17.26
2022-09-28T10:58:42.036Z,17.12
2022-09-28T11:01:18.718Z,17.02
2022-09-28T11:04:00.752Z,17.16
2022-09-28T11:06:30.767Z,17.17
2022-09-28T11:09:03.479Z,16.97
2022-09-28T11:11:31.395Z,16.71
2022-09-28T11:14:01.246Z,16.59
2022-09-28T11:16:33.205Z,16.51
2022-09-28T11:19:24.353Z,16.59
2022-09-28T11:21:55.663Z,16.78
2022-09-28T11:24:25.466Z,16.84
2022-09-28T11:26:57.050Z,16.76
2022-09-28T11:29:34.714Z,16.52
2022-09-28T11:32:03.678Z,16.41
2022-09-28T11:34:59.709Z,16.38
2022-09-28T11:37:58.947Z,16.32
2022-09-28T11:40:31.482Z,16.59
2022-09-28T11:43:18.512Z,16.92
2022-09-28T11:46:03.787Z,17.25
2022-09-28T11:48:42.371Z,17.60
2022-09-28T11:51:17.819Z,17.86
2022-09-28T11:53:52.168Z,17.92
2022-09-28T11:56:32.778Z,17.80
2022-09-28T11:59:08.605Z,17.56
2022-09-28T12:01:42.529Z,17.77
2022-09-28T12:04:32.437Z,18.08
2022-09-28T12:07:16.478Z,18.37
2022-09-28T12:09:54.730Z,18.54
2022-09-28T12:12:32.646Z,18.71
2022-09-28T12:15:04.539Z,18.78
2022-09-28T12:17:39.419Z,18.55
2022-09-28T12:20:42.121Z,18.20
2022-09-28T12:23:14.508Z,17.94
2022-09-28T12:25:46.786Z,17.86
2022-09-28T12:28:31.573Z,17.84
2022-09-28T12:31:11.676Z,17.93
2022-09-28T12:33:39.334Z,17.95
2022-09-28T12:36:26.224Z,17.90
2022-09-28T12:39:22.006Z,17.78
2022-09-28T12:42:16.545Z,17.73
2022-09-28T12:45:04.697Z,18.04
2022-09-28T12:47:40.277Z,18.36
2022-09-28T12:50:39.630Z,18.64
2022-09-28T12:53:27.215Z,18.93
2022-09-28T12:56:01.539Z,18.98
2022-09-28T12:59:01.147Z,19.02
2022-09-28T13:01:46.045Z,18.82
2022-09-28T13:04:18.485Z,18.64
2022-09-28T13:07:08.269Z,18.47
2022-09-28T13:09:44.949Z,18.50
2022-09-28T13:12:25.270Z,18.66
2022-09-28T13:15:16.272Z,18.80
2022-09-28T13:17:51.826Z,18.67
2022-09-28T13:20:32.624Z,18.30
2022-09-28T13:23:23.733Z,17.95
2022-09-28T13:26:23.715Z,17.76
2022-09-28T13:28:54.785Z,17.65
2022-09-28T13:31:31.766Z,17.59
2022-09-28T13:34:03.679Z,17.53
2022-09-28T13:36:32.755Z,17.55
2022-09-28T13:39:00.781Z,17.54
2022-09-28T13:41:37.397Z,17.53
2022-09-28T13:44:13.116Z,17.43
2022-09-28T13:46:48.149Z,17.27
2022-09-28T13:49:45.510Z,17.05
2022-09-28T13:52:49.777Z,16.92
2022-09-28T13:55:32.951Z,16.89
2022-09-28T13:58:15.648Z,16.84
2022-09-28T14:00:51.559Z,16.72
2022-09-28T14:03:43.003Z,16.63
2022-09-28T14:06:21.702Z,16.64
2022-09-28T14:09:13.112Z,16.66
2022-09-28T14:11:59.374Z,16.85
2022-09-28T14:14:31.267Z,17.00
2022-09-28T14:17:19.751Z,16.96
2022-09-28T14:19:52.655Z,16.83
2022-09-28T14:22:34.804Z,16.80
2022-09-28T14:25:07.060Z,16.81
2022-09-28T14:28:01.471Z,16.97
2022-09-28T14:30:48.562Z,17.16
2022-09-28T14:33:21.369Z,17.30
2022-09-28T14:35:56.526Z,17.43
2022-09-28T14:38:49.593Z,17.51
2022-09-28T14:41:16.265Z,17.45
2022-09-28T14:43:45.729Z,17.39
2022-09-28T14:46:15.350Z,17.29
2022-09-28T14:48:51.145Z,17.11
2022-09-28T14:51:26.919Z,16.98
2022-09-28T14:53:54.991Z,16.90
2022-09-28T14:56:30.441Z,16.70
2022-09-28T14:58:59.526Z,16.50
2022-09-28T15:01:26.205Z,16.39
2022-09-28T15:03:59.241Z,16.13
2022-09-28T15:06:28.951Z,16.13
2022-09-28T15:08:55.422Z,15.99
2022-09-28T15:11:24.433Z,15.97
2022-09-28T15:14:07.099Z,15.98
2022-09-28T15:16:33.763Z,16.12
2022-09-28T15:19:08.029Z,16.16
2022-09-28T15:21:39.497Z,16.23
2022-09-28T15:24:45.168Z,16.41
2022-09-28T15:27:18.937Z,16.49
2022-09-28T15:30:02.697Z,16.52
2022-09-28T15:32:31.711Z,16.58
2022-09-28T15:35:11.802Z,16.59
2022-09-28T15:37:40.681Z,16.59
2022-09-28T15:40:15.531Z,16.61
2022-09-28T15:42:45.302Z,16.55
2022-09-28T15:45:14.651Z,16.56
2022-09-28T15:47:43.613Z,16.41
2022-09-28T15:50:29.897Z,16.30
2022-09-28T15:53:04.207Z,16.08
2022-09-28T15:55:34.587Z,15.82
2022-09-28T15:58:19.672Z,15.70
2022-09-28T16:00:48.349Z,15.65
2022-09-28T16:03:17.762Z,15.56
2022-09-28T16:05:47.148Z,15.50
2022-09-28T16:08:25.208Z,15.41
2022-09-28T16:11:31.897Z,15.28
2022-09-28T16:14:21.531Z,15.16
2022-09-28T16:16:52.470Z,15.10
2022-09-28T16:19:32.075Z,15.08
2022-09-28T16:22:03.409Z,15.09
2022-09-28T16:24:38.829Z,15.09
2022-09-28T16:27:25.044Z,15.05
2022-09-28T16:30:27.333Z,14.92
2022-09-28T16:33:08.228Z,14.78
2022-09-28T16:35:41.038Z,14.71
2022-09-28T16:38:14.320Z,14.60
2022-09-28T16:40:43.415Z,14.50
2022-09-28T16:43:26.655Z,14.38
2022-09-28T16:45:58.013Z,14.26
2022-09-28T16:48:30.311Z,14.17
2022-09-28T16:50:58.132Z,14.15
2022-09-28T16:53:45.646Z,14.08
2022-09-28T16:56:13.442Z,14.01
2022-09-28T16:58:42.518Z,13.91
2022-09-28T17:01:14.114Z,13.87
2022-09-28T17:03:46.582Z,13.81
2022-09-28T17:06:16.710Z,13.78
2022-09-28T17:08:43.326Z,13.70
2022-09-28T17:11:24.888Z,13.65
2022-09-28T17:13:58.774Z,13.56
2022-09-28T17:17:02.394Z,13.55
2022-09-28T17:19:23.807Z,13.49
2022-09-28T17:21:52.316Z,13.46
2022-09-28T17:24:21.935Z,13.44
2022-09-28T17:26:53.464Z,13.36
2022-09-28T17:29:22.397Z,13.31
2022-09-28T17:31:48.980Z,13.30
2022-09-28T17:34:19.514Z,13.24
2022-09-28T17:36:46.852Z,13.20
2022-09-28T17:39:15.944Z,13.15
2022-09-28T17:41:45.634Z,13.10
2022-09-28T17:44:18.070Z,13.08
2022-09-28T17:46:48.528Z,13.06
2022-09-28T17:49:16.190Z,13.01
2022-09-28T17:51:42.688Z,12.99
2022-09-28T17:54:09.987Z,12.96
2022-09-28T17:56:39.530Z,12.94
2022-09-28T17:59:10.407Z,12.90
2022-09-28T18:01:39.226Z,12.85
2022-09-28T18:04:08.156Z,12.86
2022-09-28T18:06:40.080Z,12.77
2022-09-28T18:09:08.580Z,12.76
2022-09-28T18:11:42.311Z,12.68
2022-09-28T18:14:11.418Z,12.62
2022-09-28T18:16:38.081Z,12.56
2022-09-28T18:19:06.876Z,12.50
2022-09-28T18:21:35.968Z,12.42
2022-09-28T18:24:02.539Z,12.83
2022-09-28T18:26:29.133Z,12.50
2022-09-28T18:28:55.684Z,12.52
2022-09-28T18:31:22.711Z,12.36
2022-09-28T18:33:51.478Z,12.25
2022-09-28T18:36:20.298Z,12.20
2022-09-28T18:38:46.853Z,12.07
2022-09-28T18:41:15.747Z,12.07
2022-09-28T18:43:48.953Z,11.97
2022-09-28T18:46:18.054Z,11.87
2022-09-28T18:48:47.671Z,11.84
2022-09-28T18:51:14.297Z,11.76
2022-09-28T18:53:41.008Z,11.64
2022-09-28T18:56:09.306Z,11.62
2022-09-28T18:58:39.762Z,11.57
2022-09-28T19:04:06.532Z,11.45
2022-09-28T19:06:37.549Z,11.39
2022-09-28T19:09:06.810Z,11.33
2022-09-28T19:11:33.643Z,11.30
2022-09-28T19:14:03.667Z,11.21
2022-09-28T19:16:33.813Z,11.19
2022-09-28T19:19:03.743Z,11.14
2022-09-28T19:21:30.911Z,11.07
2022-09-28T19:24:00.990Z,11.05
2022-09-28T19:26:29.370Z,10.98
2022-09-28T19:28:57.778Z,10.92
2022-09-28T19:31:24.998Z,10.90
2022-09-28T19:33:52.040Z,10.79
2022-09-28T19:36:23.522Z,10.80
2022-09-28T19:38:52.431Z,10.76
2022-09-28T19:41:43.349Z,10.73
2022-09-28T19:44:15.768Z,10.68
2022-09-28T19:46:42.952Z,10.61
2022-09-28T19:49:22.771Z,10.60
2022-09-28T19:52:11.532Z,10.57
2022-09-28T19:54:38.135Z,10.55
2022-09-28T19:57:08.908Z,10.52
2022-09-28T19:59:39.075Z,10.42
2022-09-28T20:02:07.537Z,10.43
2022-09-28T20:04:36.381Z,10.36
2022-09-28T20:07:03.720Z,10.37
2022-09-28T20:09:30.314Z,10.32
2022-09-28T20:11:59.060Z,10.23
2022-09-28T20:14:27.556Z,10.25
2022-09-28T20:16:58.540Z,10.19
2022-09-28T20:19:25.065Z,10.16
2022-09-28T20:21:51.686Z,10.12
2022-09-28T20:24:18.482Z,10.07
2022-09-28T20:26:46.007Z,10.04
2022-09-28T20:29:12.926Z,10.00
2022-09-28T20:31:39.923Z,10.00
2022-09-28T20:34:07.143Z,9.96
2022-09-28T20:36:35.957Z,9.93
2022-09-28T20:39:03.382Z,9.91
2022-09-28T20:41:35.732Z,9.83
2022-09-28T20:44:06.867Z,9.84
2022-09-28T20:46:37.369Z,9.65
2022-09-28T20:49:07.729Z,9.75
2022-09-28T20:51:34.330Z,9.69
2022-09-28T20:54:00.919Z,9.66
2022-09-28T20:56:37.535Z,9.63
2022-09-28T20:59:06.632Z,9.58
2022-09-28T21:01:33.320Z,9.54
2022-09-28T21:04:02.011Z,9.55
2022-09-28T21:06:34.631Z,9.50
2022-09-28T21:09:01.468Z,9.46
2022-09-28T21:11:29.725Z,9.39
2022-09-28T21:14:06.405Z,9.36
2022-09-28T21:16:34.881Z,9.37
2022-09-28T21:19:01.787Z,9.32
2022-09-28T21:21:28.424Z,9.26
2022-09-28T21:23:56.476Z,9.25
2022-09-28T21:26:29.933Z,9.22
2022-09-28T21:29:05.608Z,9.19
2022-09-28T21:31:47.477Z,9.09
2022-09-28T21:34:24.255Z,9.11
2022-09-28T21:36:56.269Z,9.07
2022-09-28T21:39:23.071Z,9.04
2022-09-28T21:41:52.000Z,8.91
2022-09-28T21:44:18.730Z,8.95
2022-09-28T21:46:45.491Z,8.97
2022-09-28T21:49:12.658Z,8.94
2022-09-28T21:51:39.216Z,8.85
2022-09-28T21:54:08.529Z,8.82
2022-09-28T21:56:35.051Z,8.85
2022-09-28T21:59:03.927Z,8.82
2022-09-28T22:01:31.745Z,8.76
2022-09-28T22:03:58.577Z,8.77
2022-09-28T22:06:28.228Z,8.69
2022-09-28T22:08:55.178Z,8.70
2022-09-28T22:11:24.395Z,8.70
2022-09-28T22:13:56.310Z,8.62
2022-09-28T22:16:25.501Z,8.65
2022-09-28T22:18:54.308Z,8.62
2022-09-28T22:21:23.596Z,8.61
2022-09-28T22:23:51.124Z,8.58
2022-09-28T22:26:25.727Z,8.54
2022-09-28T22:29:01.008Z,8.54
2022-09-28T22:31:34.409Z,8.49
2022-09-28T22:34:01.473Z,8.46
2022-09-28T22:36:28.938Z,8.44
2022-09-28T22:38:59.358Z,8.38
2022-09-28T22:41:26.210Z,8.39
2022-09-28T22:43:53.782Z,8.34
2022-09-28T22:46:22.911Z,8.34
2022-09-28T22:48:52.773Z,8.30
2022-09-28T22:51:19.855Z,8.30
2022-09-28T22:53:47.126Z,8.30
2022-09-28T22:56:18.978Z,8.28
2022-09-28T22:58:46.788Z,8.20
2022-09-28T23:01:18.528Z,8.22
2022-09-28T23:03:45.654Z,8.19
2022-09-28T23:06:16.591Z,8.18
2022-09-28T23:08:47.390Z,8.05
2022-09-28T23:11:16.683Z,8.14
2022-09-28T23:13:49.456Z,8.06
2022-09-28T23:16:18.857Z,8.09
2022-09-28T23:18:49.250Z,8.04
2022-09-28T23:21:20.221Z,8.05
2022-09-28T23:23:52.732Z,8.03
2022-09-28T23:26:23.363Z,7.99
2022-09-28T23:28:50.585Z,7.94
2022-09-28T23:31:23.345Z,7.96
2022-09-28T23:33:50.544Z,7.94
2022-09-28T23:36:17.943Z,7.76
2022-09-28T23:38:44.574Z,7.92
2022-09-28T23:41:11.351Z,7.84
2022-09-28T23:43:42.698Z,7.86
2022-09-28T23:46:09.404Z,7.85
2022-09-28T23:48:35.969Z,7.81
2022-09-28T23:51:02.505Z,7.77
2022-09-28T23:53:29.754Z,7.69
2022-09-28T23:55:56.247Z,7.67
2022-09-28T23:58:22.790Z,7.72
